Time;durP1;ratioP1;P1;durP2;ratioP2;P2;SDS_P1;SDS_P2;PMS_P1;PMS_P2;Temp;Humidity;BMP_temperature;BMP_pressure;BME280_temperature;BME280_humidity;BME280_pressure;Samples;Min_cycle;Max_cycle;Signal;HPM_P1;HPM_P2
2021/08/20 00:00:49;;;;;;;16.15;6.82;;;24.00;65.70;;;;;;4834007;29;92211;-19
2021/08/20 00:03:15;;;;;;;15.70;7.00;;;24.10;65.70;;;;;;4833626;29;93114;-16
2021/08/20 00:05:41;;;;;;;19.48;7.80;;;24.00;65.60;;;;;;4833587;29;92999;-17
2021/08/20 00:08:06;;;;;;;15.95;6.85;;;24.00;65.60;;;;;;4833755;29;93511;-13
2021/08/20 00:10:33;;;;;;;16.75;7.53;;;24.00;65.60;;;;;;4833770;29;92539;-15
2021/08/20 00:12:58;;;;;;;15.93;7.35;;;24.00;65.60;;;;;;4833658;29;93211;-15
2021/08/20 00:15:24;;;;;;;13.10;6.25;;;24.00;65.60;;;;;;4832558;29;93004;-15
2021/08/20 00:17:50;;;;;;;16.17;7.10;;;23.90;65.60;;;;;;4832814;29;93291;-14
2021/08/20 00:20:16;;;;;;;18.17;7.47;;;24.00;65.60;;;;;;4833302;29;93396;-15
2021/08/20 00:22:41;;;;;;;12.80;6.63;;;24.00;65.60;;;;;;4832869;29;94409;-15
2021/08/20 00:25:08;;;;;;;14.40;6.93;;;24.00;65.70;;;;;;4836378;29;92848;-14
2021/08/20 00:27:34;;;;;;;17.33;7.57;;;23.90;65.60;;;;;;4836823;29;92208;-14
2021/08/20 00:29:59;;;;;;;17.30;6.70;;;24.30;65.80;;;;;;4836757;29;93039;-20
2021/08/20 00:32:25;;;;;;;16.67;6.90;;;24.00;65.60;;;;;;4835822;29;94158;-15
2021/08/20 00:34:51;;;;;;;15.38;7.22;;;23.90;65.50;;;;;;4835670;29;93875;-13
2021/08/20 00:37:16;;;;;;;15.25;6.85;;;23.90;65.50;;;;;;4836285;29;92231;-14
2021/08/20 00:39:42;;;;;;;14.95;6.50;;;23.90;65.60;;;;;;4837023;29;93246;-21
2021/08/20 00:42:08;;;;;;;13.63;6.60;;;23.90;65.60;;;;;;4836124;29;94210;-15
2021/08/20 00:44:34;;;;;;;14.48;6.72;;;24.00;65.60;;;;;;4836102;29;93253;-13
2021/08/20 00:47:01;;;;;;;14.70;6.85;;;23.90;65.60;;;;;;4835902;29;92635;-15
2021/08/20 00:49:26;;;;;;;13.02;6.70;;;23.90;65.60;;;;;;4837028;29;91959;-16
2021/08/20 00:51:52;;;;;;;16.38;7.13;;;23.90;65.60;;;;;;4836080;29;93157;-16
2021/08/20 00:54:20;;;;;;;17.40;7.25;;;23.90;65.60;;;;;;4834926;29;92948;-20
2021/08/20 00:56:47;;;;;;;15.25;6.80;;;23.90;65.60;;;;;;4835601;29;93759;-17
2021/08/20 00:59:13;;;;;;;13.00;6.47;;;23.90;65.60;;;;;;4835977;29;92733;-14
2021/08/20 01:01:39;;;;;;;13.32;7.05;;;24.10;65.70;;;;;;4835321;29;93168;-13
2021/08/20 01:04:07;;;;;;;13.10;6.00;;;23.90;65.70;;;;;;4836579;29;93383;-19
2021/08/20 01:06:33;;;;;;;14.70;6.85;;;24.00;65.80;;;;;;4837145;29;92653;-14
2021/08/20 01:08:59;;;;;;;14.05;6.20;;;23.90;65.70;;;;;;4835395;29;93000;-14
2021/08/20 01:11:26;;;;;;;15.38;6.45;;;23.90;65.70;;;;;;4834914;29;93257;-15
2021/08/20 01:13:53;;;;;;;11.73;5.88;;;24.10;65.80;;;;;;4836038;29;92342;-14
2021/08/20 01:16:18;;;;;;;11.38;5.85;;;24.00;65.70;;;;;;4835144;29;92947;-15
2021/08/20 01:18:44;;;;;;;12.32;6.00;;;23.90;65.70;;;;;;4836041;29;92109;-15
2021/08/20 01:21:13;;;;;;;18.48;7.63;;;23.80;65.60;;;;;;4834957;29;94091;-15
2021/08/20 01:23:39;;;;;;;13.82;6.10;;;23.90;65.60;;;;;;4835489;29;93937;-13
2021/08/20 01:26:05;;;;;;;12.50;5.82;;;23.90;65.60;;;;;;4836420;29;93030;-16
2021/08/20 01:28:31;;;;;;;12.90;6.55;;;23.80;65.50;;;;;;4835955;29;93142;-13
2021/08/20 01:31:05;;;;;;;15.82;6.88;;;23.80;65.60;;;;;;4835499;29;93450;-14
2021/08/20 01:33:32;;;;;;;12.23;6.45;;;23.90;65.70;;;;;;4835171;29;93016;-25
2021/08/20 01:35:58;;;;;;;13.63;6.38;;;24.20;65.90;;;;;;4835163;29;93417;-15
2021/08/20 01:38:25;;;;;;;12.70;6.00;;;23.90;65.70;;;;;;4835995;29;91446;-15
2021/08/20 01:40:52;;;;;;;12.85;6.47;;;23.80;65.70;;;;;;4835762;29;93688;-18
2021/08/20 01:43:18;;;;;;;13.57;5.90;;;23.80;65.70;;;;;;4835266;29;93301;-23
2021/08/20 01:45:47;;;;;;;12.02;5.93;;;24.10;65.80;;;;;;4834089;29;93141;-18
2021/08/20 01:48:12;;;;;;;11.95;5.38;;;24.10;65.80;;;;;;4835525;29;92485;-16
2021/08/20 01:50:42;;;;;;;14.23;5.88;;;23.80;65.60;;;;;;4835547;29;93177;-14
2021/08/20 01:53:12;;;;;;;13.60;6.05;;;23.80;65.70;;;;;;4835914;29;93841;-15
2021/08/20 01:55:38;;;;;;;16.45;6.90;;;23.80;65.70;;;;;;4836162;29;92686;-13
2021/08/20 01:58:06;;;;;;;13.10;6.18;;;23.90;65.80;;;;;;4835397;29;93161;-14
2021/08/20 02:00:32;;;;;;;11.23;5.60;;;23.70;65.70;;;;;;4834634;29;92634;-15
2021/08/20 02:02:57;;;;;;;13.45;6.32;;;23.80;65.80;;;;;;4834936;29;92767;-14
2021/08/20 02:05:23;;;;;;;11.60;5.75;;;24.00;65.90;;;;;;4835254;29;92808;-14
2021/08/20 02:07:48;;;;;;;15.27;6.18;;;23.80;65.80;;;;;;4834870;29;93303;-15
2021/08/20 02:10:14;;;;;;;15.13;6.22;;;23.80;65.80;;;;;;4834283;29;95494;-17
2021/08/20 02:12:42;;;;;;;15.90;6.72;;;23.80;65.70;;;;;;4835367;29;95107;-14
2021/08/20 02:15:08;;;;;;;12.07;5.82;;;23.80;65.80;;;;;;4835863;29;92787;-14
2021/08/20 02:17:33;;;;;;;13.35;6.30;;;23.80;65.80;;;;;;4835201;29;92166;-16
2021/08/20 02:19:59;;;;;;;12.05;5.80;;;23.80;65.70;;;;;;4835471;29;93059;-18
2021/08/20 02:22:25;;;;;;;11.95;5.35;;;23.80;66.20;;;;;;4835164;29;93292;-13
2021/08/20 02:24:54;;;;;;;9.43;5.50;;;23.80;65.70;;;;;;4834736;29;92729;-15
2021/08/20 02:27:20;;;;;;;12.20;5.93;;;23.80;65.70;;;;;;4834362;29;91726;-16
2021/08/20 02:29:46;;;;;;;15.02;5.90;;;23.90;65.80;;;;;;4833749;29;94306;-14
2021/08/20 02:32:11;;;;;;;13.43;5.72;;;23.80;65.70;;;;;;4834750;29;92885;-19
2021/08/20 02:34:37;;;;;;;12.65;5.82;;;23.80;65.70;;;;;;4834762;29;93642;-15
2021/08/20 02:37:03;;;;;;;11.38;5.88;;;23.80;65.70;;;;;;4835296;29;93088;-14
2021/08/20 02:39:29;;;;;;;12.38;5.75;;;23.70;65.60;;;;;;4833719;29;93501;-21
2021/08/20 02:41:55;;;;;;;10.40;5.30;;;23.80;65.70;;;;;;4833831;29;93423;-14
2021/08/20 02:44:20;;;;;;;10.55;5.60;;;24.00;65.80;;;;;;4833782;29;93273;-14
2021/08/20 02:46:46;;;;;;;10.65;5.32;;;23.80;65.70;;;;;;4833252;29;92222;-16
2021/08/20 02:49:11;;;;;;;12.00;5.45;;;23.70;65.70;;;;;;4835064;29;93454;-18
2021/08/20 02:51:37;;;;;;;13.40;5.93;;;23.80;65.70;;;;;;4835310;29;92368;-16
2021/08/20 02:54:03;;;;;;;11.52;6.03;;;23.80;65.60;;;;;;4834724;29;92691;-17
2021/08/20 02:56:29;;;;;;;8.63;4.60;;;23.70;65.60;;;;;;4834618;29;93093;-18
2021/08/20 02:58:54;;;;;;;11.73;5.35;;;23.70;65.60;;;;;;4834191;29;93615;-17
2021/08/20 03:01:20;;;;;;;11.45;5.72;;;23.80;65.60;;;;;;4834115;29;94118;-15
2021/08/20 03:03:48;;;;;;;9.48;5.07;;;23.90;65.70;;;;;;4834055;29;92542;-15
2021/08/20 03:06:16;;;;;;;9.48;5.00;;;23.70;65.60;;;;;;4834350;29;92226;-14
2021/08/20 03:08:42;;;;;;;10.48;5.40;;;23.70;65.70;;;;;;4832461;29;94380;-19
2021/08/20 03:11:07;;;;;;;10.55;5.07;;;23.70;65.60;;;;;;4832967;29;93264;-16
2021/08/20 03:13:33;;;;;;;10.77;5.40;;;23.70;65.70;;;;;;4834474;29;92638;-14
2021/08/20 03:15:58;;;;;;;9.52;5.10;;;23.70;65.60;;;;;;4833323;29;92182;-17
2021/08/20 03:18:24;;;;;;;11.60;5.38;;;23.90;65.80;;;;;;4834005;29;93155;-18
2021/08/20 03:20:50;;;;;;;10.25;4.93;;;23.90;65.70;;;;;;4833569;29;93508;-18
2021/08/20 03:23:16;;;;;;;9.85;5.15;;;24.00;65.80;;;;;;4833991;29;93881;-14
2021/08/20 03:25:41;;;;;;;10.80;5.18;;;23.70;65.70;;;;;;4834342;29;92973;-14
2021/08/20 03:28:07;;;;;;;9.18;5.03;;;23.70;65.70;;;;;;4833910;29;92885;-16
2021/08/20 03:30:35;;;;;;;9.98;5.13;;;23.70;65.70;;;;;;4833961;29;93082;-13
2021/08/20 03:33:00;;;;;;;9.35;4.93;;;23.70;65.80;;;;;;4833762;29;92655;-19
2021/08/20 03:35:26;;;;;;;10.55;5.03;;;23.70;65.70;;;;;;4847659;29;92823;-14
2021/08/20 03:37:52;;;;;;;9.43;5.15;;;23.80;65.70;;;;;;4833736;29;93747;-14
2021/08/20 03:40:18;;;;;;;12.10;5.63;;;23.70;65.70;;;;;;4834386;29;92908;-14
2021/08/20 03:42:43;;;;;;;10.35;4.93;;;23.80;65.80;;;;;;4834549;29;92188;-18
2021/08/20 03:45:11;;;;;;;9.27;4.80;;;23.90;65.90;;;;;;4834131;29;93560;-14
2021/08/20 03:47:37;;;;;;;10.43;4.90;;;23.70;65.80;;;;;;4832920;29;94338;-14
2021/08/20 03:50:04;;;;;;;10.27;5.30;;;23.70;65.60;;;;;;4833336;29;93955;-16
2021/08/20 03:52:32;;;;;;;11.63;5.07;;;23.70;65.70;;;;;;4833527;29;92618;-14
2021/08/20 03:54:58;;;;;;;9.10;4.60;;;23.80;65.70;;;;;;4834108;29;93048;-14
2021/08/20 03:57:23;;;;;;;9.55;4.88;;;23.70;65.70;;;;;;4833121;29;94514;-14
2021/08/20 03:59:49;;;;;;;9.35;5.15;;;23.70;65.70;;;;;;4836883;29;93420;-15
2021/08/20 04:02:15;;;;;;;8.93;4.90;;;23.70;65.70;;;;;;4837320;29;92647;-14
2021/08/20 04:04:40;;;;;;;10.20;5.38;;;23.70;65.70;;;;;;4837894;29;92318;-15
2021/08/20 04:07:06;;;;;;;9.63;4.70;;;23.80;65.70;;;;;;4837148;29;92980;-14
2021/08/20 04:09:31;;;;;;;11.23;5.63;;;23.80;65.80;;;;;;4838014;29;93518;-15
2021/08/20 04:11:57;;;;;;;10.05;5.60;;;23.80;65.70;;;;;;4836423;29;93717;-16
2021/08/20 04:14:23;;;;;;;11.40;5.65;;;23.80;65.70;;;;;;4837548;29;92880;-14
2021/08/20 04:16:48;;;;;;;10.60;5.55;;;23.80;65.80;;;;;;4837292;29;93289;-14
2021/08/20 04:19:14;;;;;;;9.63;5.00;;;23.90;65.90;;;;;;4837181;29;92356;-15
2021/08/20 04:21:39;;;;;;;10.55;5.68;;;23.70;65.70;;;;;;4837001;29;92754;-13
2021/08/20 04:24:08;;;;;;;10.23;5.38;;;23.80;65.90;;;;;;4837432;29;92928;-14
2021/08/20 04:26:34;;;;;;;9.93;5.18;;;23.70;65.80;;;;;;4836835;29;93212;-18
2021/08/20 04:28:59;;;;;;;10.23;5.22;;;23.80;65.90;;;;;;4837476;29;92797;-14
2021/08/20 04:31:25;;;;;;;12.38;5.22;;;23.70;65.90;;;;;;4836994;29;92623;-13
2021/08/20 04:33:52;;;;;;;11.30;5.55;;;24.10;66.10;;;;;;4837344;29;93107;-15
2021/08/20 04:36:18;;;;;;;9.57;5.10;;;23.70;65.90;;;;;;4850212;29;96221;-14
2021/08/20 04:38:44;;;;;;;9.38;5.43;;;23.70;65.90;;;;;;4836178;29;94097;-16
2021/08/20 04:41:09;;;;;;;9.63;5.35;;;23.80;66.00;;;;;;4836729;29;92410;-18
2021/08/20 04:43:36;;;;;;;10.63;5.15;;;23.70;66.00;;;;;;4836006;29;93065;-18
2021/08/20 04:46:02;;;;;;;7.97;4.57;;;23.70;66.00;;;;;;4836289;29;93261;-18
2021/08/20 04:48:27;;;;;;;10.88;5.50;;;23.60;66.00;;;;;;4836067;29;93055;-16
2021/08/20 04:50:53;;;;;;;8.70;4.57;;;23.90;66.10;;;;;;4835514;29;93061;-18
2021/08/20 04:53:19;;;;;;;10.07;5.40;;;23.80;66.10;;;;;;4836764;29;92195;-15
2021/08/20 04:55:45;;;;;;;9.93;4.95;;;23.70;66.00;;;;;;4836270;29;93226;-14
2021/08/20 04:58:11;;;;;;;11.52;5.47;;;23.70;66.00;;;;;;4836112;29;92976;-17
2021/08/20 05:00:37;;;;;;;10.50;4.80;;;23.70;66.00;;;;;;4835794;29;93948;-14
2021/08/20 05:03:06;;;;;;;8.18;4.20;;;23.60;66.00;;;;;;4835521;29;93010;-18
2021/08/20 05:05:34;;;;;;;8.43;4.40;;;23.60;66.00;;;;;;4835742;29;93799;-18
2021/08/20 05:08:00;;;;;;;8.70;4.70;;;23.60;66.00;;;;;;4835945;29;92488;-20
2021/08/20 05:10:29;;;;;;;9.68;4.70;;;23.60;65.90;;;;;;4850120;29;92764;-15
2021/08/20 05:12:55;;;;;;;8.48;4.95;;;23.60;65.90;;;;;;4836566;29;93297;-15
2021/08/20 05:15:22;;;;;;;9.75;4.72;;;23.70;65.90;;;;;;4835688;29;92964;-22
2021/08/20 05:17:48;;;;;;;8.57;4.20;;;23.70;65.90;;;;;;4836047;29;93017;-18
2021/08/20 05:20:14;;;;;;;10.85;5.15;;;23.80;65.90;;;;;;4835764;29;92711;-16
2021/08/20 05:22:49;;;;;;;9.65;5.03;;;23.60;65.80;;;;;;4835751;29;92324;-15
2021/08/20 05:25:15;;;;;;;8.68;4.35;;;23.60;65.80;;;;;;4833583;29;94181;-14
2021/08/20 05:27:41;;;;;;;9.65;4.80;;;23.60;65.90;;;;;;4834677;29;93740;-13
2021/08/20 05:30:07;;;;;;;8.98;5.07;;;23.60;65.90;;;;;;4850434;29;93151;-18
2021/08/20 05:32:33;;;;;;;7.90;4.38;;;23.60;65.90;;;;;;4849917;29;93369;-14
2021/08/20 05:34:59;;;;;;;8.27;4.80;;;23.60;65.90;;;;;;4834345;29;93150;-20
2021/08/20 05:37:27;;;;;;;9.23;4.93;;;23.60;66.40;;;;;;4835231;29;93267;-15
2021/08/20 05:39:52;;;;;;;8.45;4.18;;;23.60;65.90;;;;;;4836304;29;92200;-14
2021/08/20 05:42:18;;;;;;;8.18;4.30;;;23.80;66.00;;;;;;4836360;29;91850;-14
2021/08/20 05:44:44;;;;;;;7.28;4.05;;;23.60;65.90;;;;;;4834267;29;93330;-13
2021/08/20 05:47:10;;;;;;;9.38;4.93;;;23.60;65.90;;;;;;4834905;29;92788;-14
2021/08/20 05:49:35;;;;;;;7.18;3.80;;;23.60;65.80;;;;;;4834952;29;93777;-20
2021/08/20 05:52:01;;;;;;;9.95;4.05;;;23.70;65.80;;;;;;4834876;29;92591;-15
2021/08/20 05:54:26;;;;;;;8.80;4.45;;;23.60;65.80;;;;;;4834118;29;93288;-20
2021/08/20 05:56:52;;;;;;;15.68;5.38;;;23.60;65.80;;;;;;4835512;29;93100;-16
2021/08/20 05:59:17;;;;;;;18.95;4.80;;;23.60;65.90;;;;;;4835708;29;93135;-26
2021/08/20 06:01:43;;;;;;;20.65;5.30;;;23.60;65.90;;;;;;4835366;29;93235;-16
2021/08/20 06:04:09;;;;;;;13.25;4.80;;;23.70;65.90;;;;;;4835393;29;93176;-14
2021/08/20 06:06:38;;;;;;;12.45;5.00;;;23.70;65.90;;;;;;4835104;29;93100;-14
2021/08/20 06:09:04;;;;;;;9.57;4.60;;;23.70;65.90;;;;;;4848991;29;93139;-14
2021/08/20 06:11:34;;;;;;;11.00;4.80;;;23.70;66.20;;;;;;4834380;29;92595;-16
2021/08/20 06:14:00;;;;;;;15.48;5.55;;;23.60;66.40;;;;;;4820345;29;96507;-17
2021/08/20 06:16:26;;;;;;;13.60;5.50;;;24.00;66.80;;;;;;4832471;29;93948;-21
2021/08/20 06:18:52;;;;;;;17.35;5.50;;;23.70;66.60;;;;;;4833882;29;93192;-17
2021/08/20 06:21:18;;;;;;;16.88;5.55;;;23.80;66.70;;;;;;4831243;29;93068;-16
2021/08/20 06:23:43;;;;;;;21.45;5.75;;;23.80;66.80;;;;;;4834452;29;93271;-15
2021/08/20 06:26:09;;;;;;;21.20;6.05;;;23.70;66.60;;;;;;4833091;29;93973;-17
2021/08/20 06:28:35;;;;;;;21.60;6.47;;;23.80;66.50;;;;;;4834161;29;92928;-15
2021/08/20 06:31:04;;;;;;;16.20;5.68;;;23.80;66.50;;;;;;4833827;29;92212;-15
2021/08/20 06:33:33;;;;;;;19.77;5.47;;;24.20;66.90;;;;;;4832673;29;94689;-14
2021/08/20 06:36:00;;;;;;;14.75;5.57;;;23.90;66.70;;;;;;4832639;29;92423;-16
2021/08/20 06:38:26;;;;;;;15.82;5.40;;;23.90;66.80;;;;;;4833131;29;93508;-16
2021/08/20 06:40:52;;;;;;;19.23;5.88;;;23.90;67.20;;;;;;4833933;29;93175;-19
2021/08/20 06:43:25;;;;;;;21.70;7.25;;;24.10;67.50;;;;;;5010241;28;86557;-2
2021/08/20 06:45:50;;;;;;;27.15;7.32;;;23.80;67.50;;;;;;5007447;28;86220;-3
2021/08/20 06:48:16;;;;;;;28.17;8.23;;;23.90;67.50;;;;;;5007781;28;86999;-6
2021/08/20 06:50:43;;;;;;;29.27;6.93;;;23.90;67.40;;;;;;5006746;28;87204;-12
2021/08/20 06:53:09;;;;;;;25.05;7.45;;;23.90;67.50;;;;;;5006615;28;86411;-3
2021/08/20 06:55:35;;;;;;;23.13;6.60;;;23.90;67.50;;;;;;5006524;28;86230;-8
2021/08/20 06:58:01;;;;;;;30.70;7.80;;;23.90;67.60;;;;;;5004400;28;86088;-11
2021/08/20 07:00:28;;;;;;;27.42;7.20;;;23.90;67.30;;;;;;5007034;28;88054;-4
2021/08/20 07:02:53;;;;;;;32.20;7.93;;;23.90;67.40;;;;;;5006789;28;86890;-4
2021/08/20 07:05:22;;;;;;;27.27;7.88;;;24.00;67.70;;;;;;5005433;28;85765;-5
2021/08/20 07:07:48;;;;;;;32.85;8.50;;;23.90;68.10;;;;;;5008886;28;86875;-3
2021/08/20 07:10:16;;;;;;;30.38;7.60;;;24.00;68.30;;;;;;5007821;28;86787;-3
2021/08/20 07:12:43;;;;;;;31.10;7.25;;;23.90;67.70;;;;;;5008103;28;86582;-9
2021/08/20 07:15:11;;;;;;;20.88;6.22;;;23.90;67.90;;;;;;5008796;28;86246;-3
2021/08/20 07:17:37;;;;;;;29.70;7.38;;;24.00;67.40;;;;;;5008894;28;86306;-3
2021/08/20 07:20:03;;;;;;;18.33;5.45;;;24.00;67.60;;;;;;5008612;28;86872;-3
2021/08/20 07:22:29;;;;;;;29.38;7.13;;;24.00;67.50;;;;;;5008486;28;86314;-3
2021/08/20 07:24:55;;;;;;;24.17;6.82;;;24.10;67.50;;;;;;5009278;28;86668;-4
2021/08/20 07:27:20;;;;;;;17.25;5.05;;;24.00;67.40;;;;;;5008718;28;86268;-6
2021/08/20 07:29:47;;;;;;;19.52;4.97;;;23.90;67.30;;;;;;5008684;28;86230;-3
2021/08/20 07:32:13;;;;;;;25.13;6.75;;;23.90;67.30;;;;;;5008150;28;86625;-7
2021/08/20 07:34:38;;;;;;;29.92;6.70;;;23.80;67.90;;;;;;5007066;28;86117;-3
2021/08/20 07:37:05;;;;;;;26.42;6.85;;;24.00;68.50;;;;;;5009353;28;87120;-4
2021/08/20 07:39:31;;;;;;;24.08;5.88;;;23.90;68.60;;;;;;5008137;28;86825;-4
2021/08/20 07:41:57;;;;;;;20.35;4.57;;;23.90;68.10;;;;;;5016460;28;86238;-3
2021/08/20 07:44:25;;;;;;;20.25;4.72;;;23.90;68.40;;;;;;5026291;27;86178;-6
2021/08/20 07:46:52;;;;;;;22.92;5.50;;;23.80;69.00;;;;;;5026945;28;86328;-9
2021/08/20 07:49:17;;;;;;;23.45;5.68;;;23.80;68.80;;;;;;5024064;28;87615;-2
2021/08/20 07:51:44;;;;;;;25.42;6.43;;;24.10;69.20;;;;;;5027136;28;86408;-8
2021/08/20 07:54:14;;;;;;;14.30;4.40;;;23.90;69.20;;;;;;5014914;28;86336;-6
2021/08/20 07:56:40;;;;;;;20.48;4.78;;;23.90;68.80;;;;;;5012694;28;86977;-3
2021/08/20 07:59:06;;;;;;;23.30;4.88;;;23.90;69.00;;;;;;5015089;28;87011;-8
2021/08/20 08:01:31;;;;;;;17.77;4.32;;;24.00;69.20;;;;;;5013824;28;87596;-9
2021/08/20 08:03:57;;;;;;;24.45;5.55;;;23.90;69.40;;;;;;5015343;28;86120;-11
2021/08/20 08:06:27;;;;;;;25.55;5.18;;;24.10;69.90;;;;;;5015296;28;85796;-5
2021/08/20 08:08:53;;;;;;;29.73;5.53;;;24.20;70.10;;;;;;5014819;28;87009;-3
2021/08/20 08:11:20;;;;;;;26.05;5.03;;;24.00;70.20;;;;;;5014533;28;87871;-3
2021/08/20 08:13:46;;;;;;;25.65;5.07;;;24.10;70.30;;;;;;5015190;28;86815;-16
2021/08/20 08:16:12;;;;;;;19.42;4.78;;;24.20;70.50;;;;;;5014888;28;86048;-4
2021/08/20 08:18:38;;;;;;;19.83;4.85;;;24.00;69.90;;;;;;5014521;28;86682;-4
2021/08/20 08:21:03;;;;;;;24.58;4.90;;;24.00;70.10;;;;;;5014458;28;87776;-7
2021/08/20 08:23:30;;;;;;;19.13;5.10;;;24.10;70.10;;;;;;5014489;28;85925;-10
2021/08/20 08:25:56;;;;;;;17.35;5.55;;;24.00;70.10;;;;;;5014302;28;86379;-14
2021/08/20 08:28:22;;;;;;;25.80;5.45;;;24.00;70.20;;;;;;5013993;28;86426;-3
2021/08/20 08:30:49;;;;;;;22.45;4.25;;;24.10;70.30;;;;;;5012913;28;86755;-6
2021/08/20 08:33:16;;;;;;;18.63;4.80;;;24.10;70.30;;;;;;5013387;28;85861;-9
2021/08/20 08:35:42;;;;;;;25.73;6.03;;;24.10;70.40;;;;;;5013947;28;87043;-6
2021/08/20 08:38:10;;;;;;;15.73;4.88;;;24.20;70.40;;;;;;5014025;28;86769;-5
2021/08/20 08:40:39;;;;;;;17.05;5.22;;;24.10;70.60;;;;;;5011669;28;87862;-11
2021/08/20 08:43:06;;;;;;;22.50;5.28;;;24.10;70.70;;;;;;5012709;28;86479;-9
2021/08/20 08:45:33;;;;;;;19.67;5.53;;;24.20;70.80;;;;;;5013582;28;85861;-3
2021/08/20 08:48:01;;;;;;;19.75;5.82;;;24.00;70.70;;;;;;5013643;28;86998;-3
2021/08/20 08:50:27;;;;;;;17.23;5.05;;;24.10;70.80;;;;;;5011922;28;86647;-9
2021/08/20 08:52:53;;;;;;;21.88;5.57;;;24.10;70.70;;;;;;5014007;28;86949;-7
2021/08/20 08:55:19;;;;;;;24.95;5.43;;;24.20;70.70;;;;;;5013529;28;85908;-3
2021/08/20 08:57:44;;;;;;;23.25;5.10;;;24.10;70.70;;;;;;5012669;28;86382;-10
2021/08/20 09:00:11;;;;;;;28.75;5.75;;;24.10;70.40;;;;;;5012689;28;86419;-4
2021/08/20 09:02:37;;;;;;;39.22;6.30;;;24.10;70.50;;;;;;5012718;28;86917;-6
2021/08/20 09:05:11;;;;;;;23.25;5.28;;;24.10;70.30;;;;;;5012553;28;85811;-3
2021/08/20 09:07:38;;;;;;;23.25;4.78;;;24.10;70.30;;;;;;5013151;28;86327;-4
2021/08/20 09:10:18;;;;;;;26.73;5.75;;;24.20;70.30;;;;;;5013461;28;86430;-8
2021/08/20 09:12:49;;;;;;;16.23;4.55;;;24.00;70.10;;;;;;5013400;28;86780;-8
2021/08/20 09:15:17;;;;;;;21.63;5.88;;;24.30;70.20;;;;;;5013582;28;86588;-4
2021/08/20 09:17:54;;;;;;;20.65;5.95;;;24.20;70.10;;;;;;5013939;28;87734;-5
2021/08/20 09:20:25;;;;;;;20.48;4.78;;;24.30;70.10;;;;;;5013124;28;86892;-2
2021/08/20 09:22:54;;;;;;;25.80;5.38;;;24.20;69.90;;;;;;5011563;28;85956;-7
2021/08/20 09:25:31;;;;;;;20.50;5.60;;;24.20;69.80;;;;;;5011486;28;85908;-4
2021/08/20 09:28:31;;;;;;;25.00;5.68;;;24.20;69.60;;;;;;5012267;28;87364;-8
2021/08/20 09:31:03;;;;;;;18.95;5.25;;;24.60;69.60;;;;;;5013608;28;86745;-2
2021/08/20 09:33:48;;;;;;;26.92;5.13;;;24.20;69.40;;;;;;5012129;28;86918;-5
2021/08/20 09:36:20;;;;;;;19.40;4.70;;;24.30;69.40;;;;;;5010460;28;86782;-4
2021/08/20 09:38:51;;;;;;;18.75;5.13;;;24.30;69.60;;;;;;5011585;28;87121;-6
2021/08/20 09:41:25;;;;;;;19.15;5.57;;;24.70;69.80;;;;;;5012452;28;87814;-3
2021/08/20 09:43:56;;;;;;;18.58;5.15;;;24.20;69.50;;;;;;5012772;28;86473;-10
2021/08/20 09:46:23;;;;;;;22.35;5.65;;;24.20;69.70;;;;;;5013178;28;86042;-4
2021/08/20 09:48:56;;;;;;;27.85;6.10;;;24.30;69.60;;;;;;5012154;28;86996;-7
2021/08/20 09:51:30;;;;;;;24.98;5.72;;;24.30;69.60;;;;;;5011150;28;86937;-6
2021/08/20 09:54:05;;;;;;;29.90;5.80;;;24.40;69.70;;;;;;5011224;28;86655;-11
2021/08/20 09:56:31;;;;;;;28.30;6.32;;;24.40;69.20;;;;;;5011977;28;86909;-6
2021/08/20 09:58:59;;;;;;;22.38;5.70;;;24.50;69.00;;;;;;5011479;28;86913;-6
2021/08/20 10:01:27;;;;;;;32.97;5.90;;;24.50;68.80;;;;;;5010302;28;86212;-13
2021/08/20 10:03:53;;;;;;;18.27;6.13;;;24.50;68.70;;;;;;5011271;28;85847;-7
2021/08/20 10:06:21;;;;;;;21.10;6.00;;;24.60;68.50;;;;;;5012372;28;85795;-4
2021/08/20 10:08:47;;;;;;;17.65;5.97;;;24.60;68.40;;;;;;5012064;28;87040;-5
2021/08/20 10:11:15;;;;;;;22.63;5.32;;;24.70;68.30;;;;;;5011108;28;86653;-4
2021/08/20 10:13:43;;;;;;;19.55;5.50;;;24.70;68.20;;;;;;5012008;28;86604;-6
2021/08/20 10:16:10;;;;;;;15.88;4.88;;;24.70;68.10;;;;;;5010810;28;85765;-4
2021/08/20 10:18:37;;;;;;;14.52;5.78;;;24.80;68.10;;;;;;5011903;28;87008;-5
2021/08/20 10:21:03;;;;;;;14.10;4.65;;;24.80;67.90;;;;;;5010725;28;87268;-9
2021/08/20 10:23:31;;;;;;;19.60;5.35;;;24.80;67.90;;;;;;5010780;28;86183;-6
2021/08/20 10:25:56;;;;;;;27.17;5.07;;;25.00;67.80;;;;;;5011443;28;86724;-12
2021/08/20 10:28:23;;;;;;;17.92;5.90;;;24.90;68.30;;;;;;5011702;28;86727;-9
2021/08/20 10:30:50;;;;;;;22.08;5.03;;;24.90;67.70;;;;;;5011614;28;86684;-7
2021/08/20 10:33:30;;;;;;;18.63;5.40;;;24.90;68.00;;;;;;5011625;28;87084;-7
2021/08/20 10:35:57;;;;;;;19.15;5.40;;;24.90;67.80;;;;;;5011773;28;86530;-7
2021/08/20 10:38:43;;;;;;;16.67;4.93;;;25.00;67.80;;;;;;5011919;28;86878;-4
2021/08/20 10:41:18;;;;;;;22.73;5.95;;;25.00;67.60;;;;;;5009699;28;87413;-3
2021/08/20 10:43:50;;;;;;;18.13;4.97;;;25.10;67.50;;;;;;5010243;28;86843;-4
2021/08/20 10:46:34;;;;;;;14.98;5.10;;;25.10;67.60;;;;;;5010392;28;86624;-6
2021/08/20 10:49:20;;;;;;;17.58;5.43;;;25.10;67.80;;;;;;5011173;28;87554;-11
2021/08/20 10:51:52;;;;;;;13.80;4.20;;;25.10;67.60;;;;;;5011307;28;86548;-4
2021/08/20 10:54:41;;;;;;;14.90;5.53;;;25.10;67.70;;;;;;5010938;28;86978;-8
2021/08/20 10:57:10;;;;;;;13.30;5.03;;;25.20;67.70;;;;;;5011026;28;86471;-7
2021/08/20 10:59:53;;;;;;;16.58;5.38;;;25.20;67.60;;;;;;5010384;28;87613;-8
2021/08/20 11:02:19;;;;;;;20.98;4.90;;;25.20;67.60;;;;;;5010627;28;86035;-4
2021/08/20 11:05:02;;;;;;;15.10;4.45;;;25.20;67.20;;;;;;5010850;28;86868;-5
2021/08/20 11:07:44;;;;;;;16.65;4.75;;;25.30;66.90;;;;;;5010771;28;86292;-6
2021/08/20 11:10:09;;;;;;;14.07;4.72;;;25.30;66.90;;;;;;5010086;28;87595;-6
2021/08/20 11:12:58;;;;;;;13.73;4.35;;;25.30;66.70;;;;;;5009913;28;86558;-4
2021/08/20 11:15:25;;;;;;;13.05;4.68;;;25.40;66.50;;;;;;5010609;28;86264;-11
2021/08/20 11:17:58;;;;;;;15.20;4.20;;;25.40;66.40;;;;;;5010573;28;86405;-9
2021/08/20 11:20:28;;;;;;;;;;;25.40;66.20;;;;;;5011903;28;86969;-4
2021/08/20 11:23:06;;;;;;;11.77;3.75;;;25.40;65.90;;;;;;5012618;28;86861;-11
2021/08/20 11:25:40;;;;;;;15.15;3.78;;;25.50;65.50;;;;;;5010861;28;85875;-9
2021/08/20 11:28:34;;;;;;;15.05;4.70;;;25.50;65.20;;;;;;5009592;28;86036;-3
2021/08/20 11:31:05;;;;;;;8.90;3.80;;;25.50;65.50;;;;;;5013776;28;88278;-8
2021/08/20 11:33:39;;;;;;;10.00;3.90;;;25.50;65.40;;;;;;5014176;28;87150;-7
2021/08/20 11:36:08;;;;;;;11.35;3.83;;;25.50;65.00;;;;;;5014188;28;85780;-4
2021/08/20 11:38:41;;;;;;;10.73;3.75;;;25.50;64.90;;;;;;5013241;28;86627;-5
2021/08/20 11:41:09;;;;;;;9.63;3.65;;;25.50;64.90;;;;;;5013482;28;86353;-11
2021/08/20 11:43:36;;;;;;;14.90;3.78;;;25.50;64.60;;;;;;5014502;28;86189;-3
2021/08/20 11:46:06;;;;;;;8.60;3.22;;;25.50;64.50;;;;;;5013563;28;87108;-10
2021/08/20 11:48:46;;;;;;;10.32;3.38;;;25.50;64.40;;;;;;5013947;28;86734;-7
2021/08/20 11:51:14;;;;;;;12.48;3.63;;;25.50;64.10;;;;;;5012871;28;86855;-4
2021/08/20 11:53:46;;;;;;;15.30;3.42;;;25.60;63.80;;;;;;5012584;28;86495;-4
2021/08/20 11:56:13;;;;;;;17.75;3.40;;;25.60;64.60;;;;;;5013969;28;86260;-6
2021/08/20 11:58:40;;;;;;;16.65;3.67;;;25.50;64.60;;;;;;5014378;28;86112;-11
2021/08/20 12:01:09;;;;;;;11.75;3.40;;;25.50;64.70;;;;;;5013345;28;86956;-7
2021/08/20 12:03:43;;;;;;;10.82;3.40;;;25.40;65.00;;;;;;5013276;28;86417;-4
2021/08/20 12:06:10;;;;;;;14.63;2.95;;;25.50;65.50;;;;;;5012263;28;87084;-10
2021/08/20 12:08:37;;;;;;;12.23;3.53;;;25.50;66.00;;;;;;5012966;28;86637;-7
2021/08/20 12:11:05;;;;;;;18.48;4.00;;;25.50;65.70;;;;;;5014330;28;86784;-6
2021/08/20 12:13:39;;;;;;;12.05;3.58;;;25.50;66.00;;;;;;5013801;28;86568;-3
2021/08/20 12:16:05;;;;;;;18.55;4.03;;;25.40;66.50;;;;;;5013565;28;86026;-8
2021/08/20 12:18:30;;;;;;;12.95;3.85;;;25.40;66.60;;;;;;5013578;28;87129;-3
2021/08/20 12:20:57;;;;;;;17.90;4.75;;;25.40;66.80;;;;;;5013107;28;88442;-2
2021/08/20 12:23:23;;;;;;;11.70;3.30;;;25.40;67.00;;;;;;5011832;28;88328;-3
2021/08/20 12:25:49;;;;;;;10.30;3.42;;;25.60;67.20;;;;;;5012258;28;86302;-3
2021/08/20 12:28:17;;;;;;;14.27;3.80;;;25.50;66.90;;;;;;5012298;28;87109;-4
2021/08/20 12:30:45;;;;;;;11.45;3.22;;;25.50;67.00;;;;;;5013491;28;87047;-8
2021/08/20 12:33:11;;;;;;;9.48;3.22;;;25.50;66.80;;;;;;5013787;28;86499;-3
2021/08/20 12:35:38;;;;;;;12.43;3.13;;;25.50;66.20;;;;;;5013600;28;86542;-6
2021/08/20 12:38:04;;;;;;;11.98;2.92;;;25.50;66.20;;;;;;5013546;28;87009;-4
2021/08/20 12:41:02;;;;;;;13.00;2.63;;;25.70;66.70;;;;;;5011845;28;88830;-5
2021/08/20 12:43:28;;;;;;;14.43;2.95;;;25.50;66.50;;;;;;5005444;28;87342;-5
2021/08/20 12:46:13;;;;;;;15.38;3.40;;;25.60;66.60;;;;;;5011702;28;86417;-6